createdAt,value
2019-03-04T00:01:04.993Z,6.67
2019-03-04T00:03:34.869Z,6.70
2019-03-04T00:06:04.736Z,6.84
2019-03-04T00:08:35.108Z,6.73
2019-03-04T00:11:05.428Z,6.63
2019-03-04T00:13:35.618Z,6.78
2019-03-04T00:16:05.992Z,6.79
2019-03-04T00:18:36.504Z,6.89
2019-03-04T00:21:07.083Z,6.84
2019-03-04T00:23:36.888Z,6.69
2019-03-04T00:26:07.066Z,6.61
2019-03-04T00:28:37.271Z,6.61
2019-03-04T00:31:07.585Z,6.69
2019-03-04T00:33:37.562Z,6.83
2019-03-04T00:36:07.673Z,6.75
2019-03-04T00:38:38.029Z,6.67
2019-03-04T00:41:08.318Z,6.65
2019-03-04T00:43:38.524Z,6.51
2019-03-04T00:46:08.866Z,6.46
2019-03-04T00:48:38.882Z,6.56
2019-03-04T00:51:09.253Z,6.53
2019-03-04T00:53:39.635Z,6.71
2019-03-04T00:56:09.780Z,6.72
2019-03-04T00:58:40.004Z,6.54
2019-03-04T01:01:10.078Z,6.40
2019-03-04T01:03:40.271Z,6.40
2019-03-04T01:06:10.814Z,6.47
2019-03-04T01:08:40.637Z,6.61
2019-03-04T01:11:11.162Z,6.75
2019-03-04T01:13:41.523Z,6.76
2019-03-04T01:16:12.037Z,6.64
2019-03-04T01:18:42.114Z,6.54
2019-03-04T01:21:12.329Z,6.42
2019-03-04T01:23:42.944Z,6.37
2019-03-04T01:26:13.436Z,6.39
2019-03-04T01:28:43.641Z,6.43
2019-03-04T01:31:14.013Z,6.41
2019-03-04T01:33:44.504Z,6.18
2019-03-04T01:36:14.948Z,6.17
2019-03-04T01:38:44.825Z,6.13
2019-03-04T01:41:15.222Z,6.06
2019-03-04T01:43:45.522Z,6.24
2019-03-04T01:46:16.931Z,6.20
2019-03-04T01:48:47.238Z,6.09
2019-03-04T01:51:17.342Z,6.14
2019-03-04T01:53:47.569Z,6.08
2019-03-04T01:56:17.559Z,5.87
2019-03-04T01:58:47.881Z,5.85
2019-03-04T02:01:18.053Z,5.99
2019-03-04T02:03:48.254Z,6.01
2019-03-04T02:06:18.835Z,5.95
2019-03-04T02:08:49.183Z,5.92
2019-03-04T02:11:19.825Z,5.87
2019-03-04T02:13:51.401Z,5.96
2019-03-04T02:16:21.694Z,5.98
2019-03-04T02:18:52.016Z,6.07
2019-03-04T02:21:21.869Z,6.10
2019-03-04T02:23:52.224Z,6.05
2019-03-04T02:26:32.232Z,5.92
2019-03-04T02:29:02.800Z,5.95
2019-03-04T02:31:33.098Z,5.97
2019-03-04T02:34:03.630Z,5.80
2019-03-04T02:36:33.985Z,5.87
2019-03-04T02:39:05.655Z,5.80
2019-03-04T02:41:36.002Z,5.72
2019-03-04T02:44:06.604Z,5.64
2019-03-04T02:46:36.795Z,5.64
2019-03-04T02:49:07.112Z,5.54
2019-03-04T02:51:37.503Z,5.47
2019-03-04T02:54:07.612Z,5.42
2019-03-04T02:56:38.238Z,5.28
2019-03-04T02:59:08.517Z,5.19
2019-03-04T03:01:38.590Z,5.04
2019-03-04T03:04:08.607Z,5.09
2019-03-04T03:06:39.105Z,4.97
2019-03-04T03:09:11.016Z,4.83
2019-03-04T03:11:41.286Z,4.68
2019-03-04T03:14:11.535Z,4.59
2019-03-04T03:16:41.787Z,4.58
2019-03-04T03:19:12.240Z,4.53
2019-03-04T03:21:42.574Z,4.56
2019-03-04T03:24:13.138Z,4.54
2019-03-04T03:26:43.269Z,4.41
2019-03-04T03:29:13.894Z,4.21
2019-03-04T03:31:43.609Z,4.12
2019-03-04T03:34:13.963Z,4.41
2019-03-04T03:36:44.226Z,4.34
2019-03-04T03:39:14.678Z,4.23
2019-03-04T03:41:44.946Z,4.08
2019-03-04T03:44:14.992Z,4.21
2019-03-04T03:46:45.480Z,4.06
2019-03-04T03:49:15.596Z,4.11
2019-03-04T03:51:45.851Z,3.81
2019-03-04T03:54:16.617Z,3.97
2019-03-04T03:56:47.057Z,3.88
2019-03-04T03:59:17.156Z,3.97
2019-03-04T04:01:47.301Z,3.91
2019-03-04T04:04:17.972Z,3.89
2019-03-04T04:06:48.349Z,3.82
2019-03-04T04:09:18.621Z,3.74
2019-03-04T04:11:48.899Z,3.60
2019-03-04T04:14:19.263Z,3.63
2019-03-04T04:16:49.414Z,3.74
2019-03-04T04:19:19.727Z,3.52
2019-03-04T04:21:50.183Z,3.64
2019-03-04T04:24:20.707Z,3.61
2019-03-04T04:26:51.094Z,3.53
2019-03-04T04:29:21.468Z,3.41
2019-03-04T04:31:52.348Z,3.42
2019-03-04T04:34:22.803Z,3.40
2019-03-04T04:36:53.103Z,3.28
2019-03-04T04:39:23.404Z,3.25
2019-03-04T04:41:53.784Z,3.38
2019-03-04T04:44:24.376Z,3.27
2019-03-04T04:46:55.989Z,3.31
2019-03-04T04:49:31.111Z,3.29
2019-03-04T04:52:01.613Z,3.15
2019-03-04T04:54:31.949Z,3.18
2019-03-04T04:57:02.257Z,3.09
2019-03-04T04:59:32.191Z,2.98
2019-03-04T05:02:02.878Z,3.02
2019-03-04T05:04:33.247Z,3.13
2019-03-04T05:07:03.641Z,3.05
2019-03-04T05:09:34.123Z,2.96
2019-03-04T05:12:04.245Z,3.08
2019-03-04T05:14:34.707Z,2.98
2019-03-04T05:17:05.239Z,3.07
2019-03-04T05:19:35.814Z,2.96
2019-03-04T05:22:06.380Z,2.83
2019-03-04T05:24:36.698Z,2.88
2019-03-04T05:27:07.077Z,3.00
2019-03-04T05:29:37.474Z,2.97
2019-03-04T05:32:07.695Z,2.89
2019-03-04T05:34:37.866Z,2.80
2019-03-04T05:37:08.065Z,3.11
2019-03-04T05:39:37.845Z,3.21
2019-03-04T05:42:08.141Z,3.26
2019-03-04T05:44:38.239Z,3.38
2019-03-04T05:47:08.744Z,3.37
2019-03-04T05:49:39.219Z,3.27
2019-03-04T05:52:09.652Z,3.43
2019-03-04T05:54:40.147Z,3.51
2019-03-04T05:57:10.507Z,3.52
2019-03-04T05:59:43.395Z,3.73
2019-03-04T06:02:14.103Z,3.78
2019-03-04T06:04:46.239Z,3.99
2019-03-04T06:07:40.942Z,4.22
2019-03-04T06:10:13.316Z,4.24
2019-03-04T06:12:43.576Z,4.19
2019-03-04T06:15:16.153Z,4.21
2019-03-04T06:17:46.609Z,4.31
2019-03-04T06:20:17.573Z,4.44
2019-03-04T06:22:47.624Z,4.69
2019-03-04T06:25:22.803Z,4.70
2019-03-04T06:27:53.152Z,4.90
2019-03-04T06:30:24.603Z,5.05
2019-03-04T06:32:54.976Z,5.23
2019-03-04T06:35:24.996Z,5.48
2019-03-04T06:37:54.850Z,5.62
2019-03-04T06:40:25.107Z,5.73
2019-03-04T06:42:55.433Z,5.82
2019-03-04T06:45:25.673Z,5.90
2019-03-04T06:47:55.590Z,6.03
2019-03-04T06:51:00.044Z,6.15
2019-03-04T06:53:43.446Z,6.28
2019-03-04T06:56:41.688Z,6.39
2019-03-04T06:59:34.292Z,6.50
2019-03-04T07:02:09.702Z,6.63
2019-03-04T07:05:16.207Z,6.83
2019-03-04T07:07:46.529Z,7.01
2019-03-04T07:10:17.990Z,7.18
2019-03-04T07:12:48.535Z,7.49
2019-03-04T07:15:18.880Z,7.87
2019-03-04T07:17:49.264Z,8.08
2019-03-04T07:20:19.919Z,8.63
2019-03-04T07:22:50.225Z,9.74
2019-03-04T07:25:20.140Z,10.75
2019-03-04T07:27:50.835Z,11.56
2019-03-04T07:30:21.278Z,12.63
2019-03-04T07:32:51.398Z,13.51
2019-03-04T07:35:21.108Z,13.98
2019-03-04T07:38:04.451Z,14.34
2019-03-04T07:40:35.054Z,15.00
2019-03-04T07:43:05.167Z,15.77
2019-03-04T07:45:35.628Z,16.14
2019-03-04T07:48:05.876Z,16.66
2019-03-04T07:50:36.385Z,16.90
2019-03-04T07:53:06.814Z,17.33
2019-03-04T07:55:37.175Z,17.30
2019-03-04T07:58:07.540Z,17.03
2019-03-04T08:00:37.836Z,16.75
2019-03-04T08:03:08.569Z,16.57
2019-03-04T08:05:38.788Z,16.76
2019-03-04T08:08:09.168Z,16.87
2019-03-04T08:11:23.261Z,16.98
2019-03-04T08:13:57.515Z,17.33
2019-03-04T08:16:27.684Z,17.26
2019-03-04T08:18:58.036Z,17.28
2019-03-04T08:21:28.383Z,16.92
2019-03-04T08:23:58.782Z,16.89
2019-03-04T08:26:29.296Z,16.61
2019-03-04T08:28:59.659Z,16.05
2019-03-04T08:31:29.798Z,15.78
2019-03-04T08:34:00.132Z,15.57
2019-03-04T08:36:30.423Z,15.29
2019-03-04T08:39:00.680Z,15.08
2019-03-04T08:41:30.747Z,15.15
2019-03-04T08:44:00.901Z,15.65
2019-03-04T08:46:31.389Z,16.64
2019-03-04T08:49:01.481Z,17.80
2019-03-04T08:51:31.606Z,18.68
2019-03-04T08:54:01.838Z,19.64
2019-03-04T08:56:32.060Z,20.12
2019-03-04T08:59:02.524Z,20.41
2019-03-04T09:01:32.856Z,20.67
2019-03-04T09:04:03.183Z,20.88
2019-03-04T09:06:33.797Z,21.18
2019-03-04T09:09:04.393Z,21.63
2019-03-04T09:11:34.488Z,21.95
2019-03-04T09:14:04.811Z,22.41
2019-03-04T09:16:35.124Z,22.98
2019-03-04T09:19:05.674Z,23.63
2019-03-04T09:21:35.635Z,24.51
2019-03-04T09:24:05.742Z,25.31
2019-03-04T09:26:35.937Z,25.89
2019-03-04T09:29:06.363Z,26.98
2019-03-04T09:31:36.465Z,27.85
2019-03-04T09:34:06.330Z,28.43
2019-03-04T09:36:36.292Z,28.55
2019-03-04T09:39:08.090Z,28.65
2019-03-04T09:41:38.166Z,28.65
2019-03-04T09:44:08.529Z,28.97
2019-03-04T09:46:38.678Z,29.30
2019-03-04T09:49:08.892Z,29.28
2019-03-04T09:51:38.942Z,29.28
2019-03-04T09:54:09.271Z,29.45
2019-03-04T09:56:38.959Z,29.66
2019-03-04T09:59:09.377Z,30.54
2019-03-04T10:01:50.024Z,31.18
2019-03-04T10:04:54.807Z,31.54
2019-03-04T10:08:14.377Z,32.99
2019-03-04T10:11:35.976Z,34.16
2019-03-04T10:15:07.980Z,34.71
2019-03-04T10:17:41.983Z,35.48
2019-03-04T10:21:13.600Z,36.04
2019-03-04T10:24:06.627Z,36.69
2019-03-04T10:27:02.664Z,35.65
2019-03-04T10:30:12.894Z,36.41
2019-03-04T10:33:08.631Z,35.60
2019-03-04T10:36:05.488Z,36.59
2019-03-04T10:39:22.546Z,36.78
2019-03-04T10:42:21.901Z,37.14
2019-03-04T10:45:04.271Z,38.17
2019-03-04T10:47:34.193Z,37.80
2019-03-04T10:50:04.763Z,38.53
2019-03-04T10:52:34.844Z,38.38
2019-03-04T10:55:06.332Z,38.41
2019-03-04T10:57:36.202Z,39.01
2019-03-04T11:00:14.272Z,39.64
2019-03-04T11:02:44.067Z,40.15
2019-03-04T11:05:14.296Z,41.00
2019-03-04T11:07:44.321Z,41.39
2019-03-04T11:10:14.977Z,40.73
2019-03-04T11:12:45.367Z,40.03
2019-03-04T11:15:23.316Z,38.86
2019-03-04T11:17:54.482Z,38.46
2019-03-04T11:20:24.538Z,38.20
2019-03-04T11:22:54.876Z,39.12
2019-03-04T11:25:24.978Z,38.66
2019-03-04T11:27:55.198Z,37.69
2019-03-04T11:30:28.757Z,38.82
2019-03-04T11:32:59.066Z,39.26
2019-03-04T11:35:29.080Z,39.50
2019-03-04T11:37:59.257Z,39.98
2019-03-04T11:40:40.667Z,39.27
2019-03-04T11:43:11.012Z,40.52
2019-03-04T11:45:41.014Z,41.47
2019-03-04T11:48:11.035Z,41.25
2019-03-04T11:50:41.446Z,41.74
2019-03-04T11:53:11.779Z,42.41
2019-03-04T11:55:41.410Z,42.94
2019-03-04T11:58:11.383Z,43.43
2019-03-04T12:00:44.562Z,43.20
2019-03-04T12:03:15.019Z,41.43
2019-03-04T12:05:45.066Z,39.70
2019-03-04T12:08:15.239Z,39.61
2019-03-04T12:10:45.320Z,39.49
2019-03-04T12:13:15.212Z,38.76
2019-03-04T12:15:45.855Z,37.90
2019-03-04T12:18:16.099Z,38.25
2019-03-04T12:20:46.885Z,39.77
2019-03-04T12:23:17.096Z,39.93
2019-03-04T12:25:46.876Z,38.33
2019-03-04T12:28:18.502Z,37.76
2019-03-04T12:30:48.846Z,38.11
2019-03-04T12:33:19.082Z,39.03
2019-03-04T12:35:49.473Z,38.98
2019-03-04T12:38:20.507Z,39.70
2019-03-04T12:40:50.933Z,40.51
2019-03-04T12:43:21.113Z,40.31
2019-03-04T12:45:50.816Z,38.08
2019-03-04T12:48:20.898Z,38.97
2019-03-04T12:50:51.159Z,39.71
2019-03-04T12:53:21.072Z,40.38
2019-03-04T12:55:51.151Z,40.45
2019-03-04T12:58:21.388Z,40.03
2019-03-04T13:00:51.393Z,40.55
2019-03-04T13:03:23.731Z,40.85
2019-03-04T13:05:53.901Z,41.10
2019-03-04T13:08:23.844Z,41.36
2019-03-04T13:10:54.157Z,41.14
2019-03-04T13:13:23.973Z,41.18
2019-03-04T13:15:55.630Z,38.87
2019-03-04T13:18:26.045Z,37.97
2019-03-04T13:20:56.134Z,36.52
2019-03-04T13:23:26.352Z,33.98
2019-03-04T13:25:56.390Z,31.97
2019-03-04T13:28:26.539Z,30.54
2019-03-04T13:30:56.611Z,29.53
2019-03-04T13:33:26.643Z,29.10
2019-03-04T13:35:57.077Z,27.62
2019-03-04T13:38:27.473Z,27.68
2019-03-04T13:40:57.825Z,27.15
2019-03-04T13:43:28.094Z,26.72
2019-03-04T13:45:58.035Z,26.02
2019-03-04T13:48:28.027Z,25.61
2019-03-04T13:50:58.381Z,25.24
2019-03-04T13:53:27.963Z,25.00
2019-03-04T13:55:58.373Z,24.69
2019-03-04T13:58:28.413Z,24.12
2019-03-04T14:00:58.359Z,23.50
2019-03-04T14:03:28.755Z,23.10
2019-03-04T14:05:59.184Z,22.45
2019-03-04T14:08:29.419Z,22.33
2019-03-04T14:10:59.491Z,22.12
2019-03-04T14:13:29.733Z,21.98
2019-03-04T14:15:59.584Z,21.85
2019-03-04T14:18:29.564Z,21.70
2019-03-04T14:20:59.886Z,21.15
2019-03-04T14:23:30.200Z,21.00
2019-03-04T14:26:00.103Z,20.77
2019-03-04T14:28:30.337Z,20.80
2019-03-04T14:31:00.501Z,20.74
2019-03-04T14:33:30.641Z,20.60
2019-03-04T14:36:00.903Z,20.51
2019-03-04T14:38:30.908Z,20.29
2019-03-04T14:41:01.187Z,19.65
2019-03-04T14:43:31.258Z,19.43
2019-03-04T14:46:01.482Z,19.04
2019-03-04T14:48:31.848Z,18.80
2019-03-04T14:51:02.170Z,18.79
2019-03-04T14:53:32.349Z,18.74
2019-03-04T14:56:02.705Z,18.79
2019-03-04T14:58:33.254Z,18.57
2019-03-04T15:01:03.509Z,18.29
2019-03-04T15:03:33.675Z,18.04
2019-03-04T15:06:06.801Z,17.81
2019-03-04T15:08:35.249Z,17.85
2019-03-04T15:11:05.506Z,17.54
2019-03-04T15:13:35.765Z,17.48
2019-03-04T15:16:07.103Z,17.16
2019-03-04T15:18:37.349Z,17.03
2019-03-04T15:21:08.508Z,16.94
2019-03-04T15:23:38.845Z,17.19
2019-03-04T15:26:09.644Z,17.21
2019-03-04T15:28:39.529Z,17.14
2019-03-04T15:31:09.808Z,16.96
2019-03-04T15:33:40.197Z,16.73
2019-03-04T15:36:10.443Z,16.50
2019-03-04T15:38:40.363Z,16.32
2019-03-04T15:41:11.128Z,16.15
2019-03-04T15:43:41.543Z,16.00
2019-03-04T15:46:11.786Z,15.85
2019-03-04T15:48:41.991Z,15.69
2019-03-04T15:51:12.382Z,15.57
2019-03-04T15:53:43.539Z,15.40
2019-03-04T15:56:13.906Z,15.27
2019-03-04T15:58:44.290Z,15.15
2019-03-04T16:01:14.896Z,15.08
2019-03-04T16:03:45.298Z,15.01
2019-03-04T16:06:15.635Z,14.94
2019-03-04T16:08:46.003Z,14.84
2019-03-04T16:11:16.687Z,14.79
2019-03-04T16:13:53.318Z,14.73
2019-03-04T16:16:19.087Z,14.69
2019-03-04T16:18:49.482Z,14.63
2019-03-04T16:21:20.114Z,14.56
2019-03-04T16:23:50.122Z,14.48
2019-03-04T16:26:20.615Z,14.34
2019-03-04T16:28:51.065Z,14.32
2019-03-04T16:31:21.772Z,14.24
2019-03-04T16:33:51.816Z,14.32
2019-03-04T16:36:22.282Z,14.19
2019-03-04T16:38:52.541Z,13.91
2019-03-04T16:41:22.820Z,13.81
2019-03-04T16:43:52.970Z,13.82
2019-03-04T16:46:23.079Z,13.81
2019-03-04T16:48:53.352Z,13.70
2019-03-04T16:51:23.653Z,13.52
2019-03-04T16:53:53.622Z,13.34
2019-03-04T16:56:23.988Z,13.10
2019-03-04T16:58:54.482Z,12.83
2019-03-04T17:01:24.674Z,12.90
2019-03-04T17:03:54.840Z,12.79
2019-03-04T17:06:25.116Z,12.70
2019-03-04T17:08:57.852Z,12.66
2019-03-04T17:11:28.065Z,12.49
2019-03-04T17:13:58.452Z,12.46
2019-03-04T17:16:28.523Z,12.43
2019-03-04T17:18:59.130Z,12.31
2019-03-04T17:21:29.735Z,12.18
2019-03-04T17:24:00.338Z,12.14
2019-03-04T17:26:33.286Z,11.87
2019-03-04T17:29:03.513Z,11.84
2019-03-04T17:31:35.921Z,11.77
2019-03-04T17:34:06.788Z,11.64
2019-03-04T17:36:37.358Z,11.45
2019-03-04T17:39:09.135Z,11.33
2019-03-04T17:41:40.747Z,11.22
2019-03-04T17:44:18.755Z,11.12
2019-03-04T17:46:49.272Z,11.12
2019-03-04T17:49:19.731Z,11.03
2019-03-04T17:51:50.138Z,10.97
2019-03-04T17:54:20.643Z,10.88
2019-03-04T17:56:51.056Z,10.75
2019-03-04T17:59:21.305Z,10.63
2019-03-04T18:01:51.618Z,10.69
2019-03-04T18:04:22.204Z,10.68
2019-03-04T18:06:52.595Z,10.64
2019-03-04T18:09:25.021Z,10.62
2019-03-04T18:11:55.538Z,10.55
2019-03-04T18:14:25.887Z,10.50
2019-03-04T18:16:56.128Z,10.49
2019-03-04T18:19:26.493Z,10.46
2019-03-04T18:21:56.956Z,10.46
2019-03-04T18:24:27.365Z,10.40
2019-03-04T18:27:13.694Z,10.42
2019-03-04T18:30:09.627Z,10.40
2019-03-04T18:33:22.485Z,10.43
2019-03-04T18:36:17.775Z,10.45
2019-03-04T18:39:26.605Z,10.27
2019-03-04T18:42:38.286Z,10.35
2019-03-04T18:45:21.595Z,10.58
2019-03-04T18:48:23.239Z,10.70
2019-03-04T18:50:53.162Z,10.78
2019-03-04T18:53:23.352Z,10.82
2019-03-04T18:55:54.345Z,10.88
2019-03-04T18:58:24.745Z,10.89
2019-03-04T19:00:55.080Z,10.90
2019-03-04T19:03:25.539Z,10.90
2019-03-04T19:05:55.629Z,10.87
2019-03-04T19:08:26.078Z,10.89
2019-03-04T19:10:56.194Z,10.89
2019-03-04T19:13:26.379Z,10.85
2019-03-04T19:15:56.798Z,10.84
2019-03-04T19:18:27.541Z,10.75
2019-03-04T19:20:57.577Z,10.60
2019-03-04T19:23:28.116Z,10.48
2019-03-04T19:25:58.319Z,10.34
2019-03-04T19:28:29.059Z,10.20
2019-03-04T19:30:59.095Z,10.14
2019-03-04T19:33:29.592Z,10.00
2019-03-04T19:35:59.815Z,9.81
2019-03-04T19:38:30.250Z,9.52
2019-03-04T19:41:00.810Z,9.25
2019-03-04T19:43:33.069Z,9.12
2019-03-04T19:46:03.306Z,9.04
2019-03-04T19:48:33.743Z,9.00
2019-03-04T19:51:04.168Z,8.89
2019-03-04T19:53:34.645Z,8.84
2019-03-04T19:56:05.112Z,8.79
2019-03-04T19:58:35.117Z,8.75
2019-03-04T20:01:06.269Z,8.72
2019-03-04T20:03:36.695Z,8.70
2019-03-04T20:06:07.789Z,8.69
2019-03-04T20:08:38.204Z,8.65
2019-03-04T20:11:08.703Z,8.60
2019-03-04T20:13:39.140Z,8.55
2019-03-04T20:16:10.848Z,8.45
2019-03-04T20:18:41.580Z,8.39
2019-03-04T20:21:11.858Z,8.36
2019-03-04T20:23:42.369Z,8.28
2019-03-04T20:26:12.895Z,8.26
2019-03-04T20:28:43.074Z,8.24
2019-03-04T20:31:13.452Z,8.27
2019-03-04T20:33:44.898Z,8.23
2019-03-04T20:36:15.207Z,8.16
2019-03-04T20:38:47.464Z,8.08
2019-03-04T20:41:17.743Z,8.03
2019-03-04T20:43:47.906Z,7.93
2019-03-04T20:46:18.376Z,7.99
2019-03-04T20:48:48.741Z,7.95
2019-03-04T20:51:19.071Z,7.97
2019-03-04T20:53:51.291Z,8.10
2019-03-04T20:56:21.556Z,8.13
2019-03-04T20:58:51.495Z,8.11
2019-03-04T21:01:22.323Z,8.10
2019-03-04T21:03:52.798Z,8.13
2019-03-04T21:06:22.929Z,8.08
2019-03-04T21:08:53.337Z,7.93
2019-03-04T21:11:23.771Z,7.77
2019-03-04T21:13:54.037Z,7.66
2019-03-04T21:16:24.541Z,7.58
2019-03-04T21:18:54.903Z,7.70
2019-03-04T21:21:25.241Z,7.67
2019-03-04T21:23:55.909Z,7.61
2019-03-04T21:26:32.267Z,7.55
2019-03-04T21:29:55.042Z,7.67
2019-03-04T21:32:59.448Z,7.55
2019-03-04T21:36:02.074Z,7.27
2019-03-04T21:38:34.148Z,7.39
2019-03-04T21:41:34.970Z,7.27
2019-03-04T21:44:27.477Z,7.20
2019-03-04T21:47:15.026Z,7.25
2019-03-04T21:49:48.275Z,7.19
2019-03-04T21:53:00.970Z,7.22
2019-03-04T21:55:36.558Z,7.33
2019-03-04T21:58:07.096Z,7.22
2019-03-04T22:00:40.554Z,7.23
2019-03-04T22:03:19.714Z,7.38
2019-03-04T22:05:50.769Z,7.27
2019-03-04T22:08:21.666Z,7.31
2019-03-04T22:10:52.405Z,7.27
2019-03-04T22:13:22.898Z,7.15
2019-03-04T22:15:53.306Z,7.03
2019-03-04T22:18:23.621Z,7.04
2019-03-04T22:20:53.885Z,7.05
2019-03-04T22:23:24.494Z,7.09
2019-03-04T22:26:01.942Z,7.08
2019-03-04T22:28:26.802Z,7.16
2019-03-04T22:30:58.069Z,7.24
2019-03-04T22:33:28.518Z,7.10
2019-03-04T22:35:58.831Z,6.91
2019-03-04T22:38:29.240Z,6.97
2019-03-04T22:40:59.319Z,6.93
2019-03-04T22:43:29.458Z,6.70
2019-03-04T22:45:59.762Z,6.47
2019-03-04T22:48:30.147Z,6.30
2019-03-04T22:51:01.273Z,6.20
2019-03-04T22:53:31.297Z,6.07
2019-03-04T22:56:01.805Z,6.31
2019-03-04T22:58:32.231Z,6.24
2019-03-04T23:01:35.467Z,6.14
2019-03-04T23:04:37.914Z,6.03
2019-03-04T23:07:19.116Z,6.17
2019-03-04T23:10:27.268Z,6.21
2019-03-04T23:13:13.894Z,6.19
2019-03-04T23:15:45.024Z,6.15
2019-03-04T23:18:15.673Z,6.07
2019-03-04T23:20:46.116Z,6.03
2019-03-04T23:23:16.444Z,5.98
2019-03-04T23:25:46.576Z,5.93
2019-03-04T23:28:16.965Z,5.83
2019-03-04T23:30:47.264Z,6.02
2019-03-04T23:33:17.356Z,5.93
2019-03-04T23:35:47.651Z,5.92
2019-03-04T23:38:18.054Z,5.91
2019-03-04T23:40:49.251Z,5.78
2019-03-04T23:43:19.255Z,6.06
2019-03-04T23:45:49.685Z,6.13
2019-03-04T23:48:20.085Z,6.18
2019-03-04T23:50:49.779Z,6.25
2019-03-04T23:53:20.163Z,6.24
2019-03-04T23:55:50.606Z,6.24
2019-03-04T23:58:20.692Z,6.36
